sensor_id;sensor_type;location;lat;lon;timestamp;pressure;altitude;pressure_sealevel;temperature;humidity
49611;BME280;35515;48.766;9.176;2022-11-03T00:00:58;98814.19;;;9.79;86.63
49611;BME280;35515;48.766;9.176;2022-11-03T00:03:25;98813.47;;;9.70;86.63
49611;BME280;35515;48.766;9.176;2022-11-03T00:05:53;98808.97;;;9.77;86.44
49611;BME280;35515;48.766;9.176;2022-11-03T00:08:35;98814.44;;;9.62;87.22
49611;BME280;35515;48.766;9.176;2022-11-03T00:11:04;98804.72;;;9.68;87.12
49611;BME280;35515;48.766;9.176;2022-11-03T00:13:31;98817.91;;;9.56;87.43
49611;BME280;35515;48.766;9.176;2022-11-03T00:15:57;98806.69;;;9.59;87.46
49611;BME280;35515;48.766;9.176;2022-11-03T00:18:24;98800.41;;;9.74;86.57
49611;BME280;35515;48.766;9.176;2022-11-03T00:20:59;98796.41;;;9.91;85.89
49611;BME280;35515;48.766;9.176;2022-11-03T00:23:28;98787.06;;;9.72;86.83
49611;BME280;35515;48.766;9.176;2022-11-03T00:26:02;98793.38;;;9.79;86.13
49611;BME280;35515;48.766;9.176;2022-11-03T00:28:30;98795.94;;;9.87;85.68
49611;BME280;35515;48.766;9.176;2022-11-03T00:30:56;98793.13;;;9.74;86.04
49611;BME280;35515;48.766;9.176;2022-11-03T00:33:23;98790.38;;;9.89;85.15
49611;BME280;35515;48.766;9.176;2022-11-03T00:35:55;98785.84;;;9.96;85.02
49611;BME280;35515;48.766;9.176;2022-11-03T00:38:23;98780.75;;;9.65;86.53
49611;BME280;35515;48.766;9.176;2022-11-03T00:40:52;98768.34;;;9.70;85.88
49611;BME280;35515;48.766;9.176;2022-11-03T00:43:19;98771.19;;;9.47;87.37
49611;BME280;35515;48.766;9.176;2022-11-03T00:45:45;98765.75;;;9.62;86.62
49611;BME280;35515;48.766;9.176;2022-11-03T00:48:12;98764.38;;;9.51;87.30
49611;BME280;35515;48.766;9.176;2022-11-03T00:51:04;98756.66;;;9.70;86.02
49611;BME280;35515;48.766;9.176;2022-11-03T00:53:33;98755.50;;;9.79;85.72
49611;BME280;35515;48.766;9.176;2022-11-03T00:56:01;98753.69;;;9.65;86.04
49611;BME280;35515;48.766;9.176;2022-11-03T00:58:27;98753.75;;;9.50;87.14
49611;BME280;35515;48.766;9.176;2022-11-03T01:01:02;98748.81;;;9.53;86.85
49611;BME280;35515;48.766;9.176;2022-11-03T01:03:31;98746.56;;;9.57;86.44
49611;BME280;35515;48.766;9.176;2022-11-03T01:05:58;98754.34;;;9.67;86.07
49611;BME280;35515;48.766;9.176;2022-11-03T01:08:43;98750.63;;;9.68;86.02
49611;BME280;35515;48.766;9.176;2022-11-03T01:11:12;98741.19;;;9.42;86.84
49611;BME280;35515;48.766;9.176;2022-11-03T01:13:56;98739.25;;;9.36;88.24
49611;BME280;35515;48.766;9.176;2022-11-03T01:16:25;98742.09;;;9.28;88.05
49611;BME280;35515;48.766;9.176;2022-11-03T01:18:53;98730.88;;;9.31;88.43
49611;BME280;35515;48.766;9.176;2022-11-03T01:21:20;98731.28;;;9.13;88.91
49611;BME280;35515;48.766;9.176;2022-11-03T01:23:48;98732.16;;;9.13;88.98
49611;BME280;35515;48.766;9.176;2022-11-03T01:26:15;98726.56;;;9.15;88.58
49611;BME280;35515;48.766;9.176;2022-11-03T01:28:43;98731.13;;;9.14;88.68
49611;BME280;35515;48.766;9.176;2022-11-03T01:31:12;98729.81;;;9.10;88.56
49611;BME280;35515;48.766;9.176;2022-11-03T01:33:39;98715.28;;;9.11;88.92
49611;BME280;35515;48.766;9.176;2022-11-03T01:36:06;98713.06;;;9.00;88.63
49611;BME280;35515;48.766;9.176;2022-11-03T01:38:34;98715.38;;;9.03;89.03
49611;BME280;35515;48.766;9.176;2022-11-03T01:41:04;98706.13;;;9.12;87.70
49611;BME280;35515;48.766;9.176;2022-11-03T01:43:31;98695.47;;;9.26;86.58
49611;BME280;35515;48.766;9.176;2022-11-03T01:46:03;98697.63;;;8.94;88.13
49611;BME280;35515;48.766;9.176;2022-11-03T01:48:34;98704.69;;;8.95;88.33
49611;BME280;35515;48.766;9.176;2022-11-03T01:51:04;98695.78;;;9.16;87.02
49611;BME280;35515;48.766;9.176;2022-11-03T01:53:32;98692.34;;;9.07;87.37
49611;BME280;35515;48.766;9.176;2022-11-03T01:56:03;98687.94;;;8.84;88.35
49611;BME280;35515;48.766;9.176;2022-11-03T01:58:33;98681.78;;;8.91;87.80
49611;BME280;35515;48.766;9.176;2022-11-03T02:01:02;98678.72;;;8.79;88.64
49611;BME280;35515;48.766;9.176;2022-11-03T02:03:32;98672.94;;;8.82;88.84
49611;BME280;35515;48.766;9.176;2022-11-03T02:06:01;98679.72;;;8.93;87.17
49611;BME280;35515;48.766;9.176;2022-11-03T02:08:34;98672.19;;;8.88;87.25
49611;BME280;35515;48.766;9.176;2022-11-03T02:11:02;98673.94;;;8.96;87.13
49611;BME280;35515;48.766;9.176;2022-11-03T02:13:49;98670.25;;;8.82;88.11
49611;BME280;35515;48.766;9.176;2022-11-03T02:16:16;98661.44;;;8.58;89.17
49611;BME280;35515;48.766;9.176;2022-11-03T02:18:44;98673.81;;;8.52;89.95
49611;BME280;35515;48.766;9.176;2022-11-03T02:21:21;98668.91;;;8.56;89.99
49611;BME280;35515;48.766;9.176;2022-11-03T02:23:58;98664.63;;;8.47;89.79
49611;BME280;35515;48.766;9.176;2022-11-03T02:26:29;98666.63;;;8.45;90.30
49611;BME280;35515;48.766;9.176;2022-11-03T02:28:56;98658.91;;;8.57;89.70
49611;BME280;35515;48.766;9.176;2022-11-03T02:31:27;98649.72;;;8.51;89.70
49611;BME280;35515;48.766;9.176;2022-11-03T02:33:59;98644.09;;;8.67;88.59
49611;BME280;35515;48.766;9.176;2022-11-03T02:36:33;98652.38;;;8.66;88.50
49611;BME280;35515;48.766;9.176;2022-11-03T02:39:04;98650.72;;;8.65;88.94
49611;BME280;35515;48.766;9.176;2022-11-03T02:41:35;98637.66;;;8.68;88.08
49611;BME280;35515;48.766;9.176;2022-11-03T02:44:03;98639.38;;;8.55;89.06
49611;BME280;35515;48.766;9.176;2022-11-03T02:46:31;98636.88;;;8.53;89.11
49611;BME280;35515;48.766;9.176;2022-11-03T02:48:59;98639.25;;;8.33;89.74
49611;BME280;35515;48.766;9.176;2022-11-03T02:51:25;98631.94;;;8.27;90.34
49611;BME280;35515;48.766;9.176;2022-11-03T02:54:05;98629.50;;;8.32;90.38
49611;BME280;35515;48.766;9.176;2022-11-03T02:56:37;98624.13;;;8.32;90.15
49611;BME280;35515;48.766;9.176;2022-11-03T02:59:08;98614.53;;;8.29;90.41
49611;BME280;35515;48.766;9.176;2022-11-03T03:01:38;98621.13;;;8.57;89.48
49611;BME280;35515;48.766;9.176;2022-11-03T03:04:15;98604.09;;;8.41;89.99
49611;BME280;35515;48.766;9.176;2022-11-03T03:06:46;98600.91;;;8.37;90.45
49611;BME280;35515;48.766;9.176;2022-11-03T03:09:19;98594.84;;;8.35;90.88
49611;BME280;35515;48.766;9.176;2022-11-03T03:11:49;98586.69;;;8.44;90.95
49611;BME280;35515;48.766;9.176;2022-11-03T03:14:19;98587.41;;;8.52;90.22
49611;BME280;35515;48.766;9.176;2022-11-03T03:16:50;98587.41;;;8.52;90.21
49611;BME280;35515;48.766;9.176;2022-11-03T03:19:23;98578.69;;;8.50;90.25
49611;BME280;35515;48.766;9.176;2022-11-03T03:22:01;98577.91;;;8.57;89.58
49611;BME280;35515;48.766;9.176;2022-11-03T03:24:35;98578.50;;;8.52;89.50
49611;BME280;35515;48.766;9.176;2022-11-03T03:27:08;98577.09;;;8.56;89.42
49611;BME280;35515;48.766;9.176;2022-11-03T03:29:40;98572.44;;;8.50;89.93
49611;BME280;35515;48.766;9.176;2022-11-03T03:32:09;98563.13;;;8.52;89.80
49611;BME280;35515;48.766;9.176;2022-11-03T03:34:38;98560.56;;;8.66;89.27
49611;BME280;35515;48.766;9.176;2022-11-03T03:37:08;98560.06;;;8.77;88.75
49611;BME280;35515;48.766;9.176;2022-11-03T03:39:39;98559.66;;;8.59;89.62
49611;BME280;35515;48.766;9.176;2022-11-03T03:42:11;98555.09;;;8.59;89.79
49611;BME280;35515;48.766;9.176;2022-11-03T03:44:40;98558.25;;;8.63;89.53
49611;BME280;35515;48.766;9.176;2022-11-03T03:47:13;98551.63;;;8.65;89.10
49611;BME280;35515;48.766;9.176;2022-11-03T03:49:42;98544.97;;;8.46;89.99
49611;BME280;35515;48.766;9.176;2022-11-03T03:52:09;98534.00;;;8.48;90.02
49611;BME280;35515;48.766;9.176;2022-11-03T03:54:36;98535.16;;;8.60;88.70
49611;BME280;35515;48.766;9.176;2022-11-03T03:57:04;98524.94;;;8.41;90.06
49611;BME280;35515;48.766;9.176;2022-11-03T03:59:32;98528.22;;;8.36;90.50
49611;BME280;35515;48.766;9.176;2022-11-03T04:01:59;98527.22;;;8.37;90.77
49611;BME280;35515;48.766;9.176;2022-11-03T04:04:25;98535.66;;;8.34;91.03
49611;BME280;35515;48.766;9.176;2022-11-03T04:06:52;98512.22;;;8.34;91.61
49611;BME280;35515;48.766;9.176;2022-11-03T04:09:39;98518.91;;;8.39;91.32
49611;BME280;35515;48.766;9.176;2022-11-03T04:12:07;98510.34;;;8.35;91.25
49611;BME280;35515;48.766;9.176;2022-11-03T04:14:49;98507.06;;;8.40;91.14
49611;BME280;35515;48.766;9.176;2022-11-03T04:17:33;98506.03;;;8.41;90.87
49611;BME280;35515;48.766;9.176;2022-11-03T04:20:32;98502.91;;;8.37;91.44
49611;BME280;35515;48.766;9.176;2022-11-03T04:23:16;98499.22;;;8.60;90.04
49611;BME280;35515;48.766;9.176;2022-11-03T04:25:46;98493.94;;;8.51;90.49
49611;BME280;35515;48.766;9.176;2022-11-03T04:28:14;98489.06;;;8.62;90.06
49611;BME280;35515;48.766;9.176;2022-11-03T04:30:42;98496.28;;;8.55;90.55
49611;BME280;35515;48.766;9.176;2022-11-03T04:33:11;98489.00;;;8.55;90.42
49611;BME280;35515;48.766;9.176;2022-11-03T04:35:39;98476.09;;;8.50;90.67
49611;BME280;35515;48.766;9.176;2022-11-03T04:38:20;98483.97;;;8.52;90.70
49611;BME280;35515;48.766;9.176;2022-11-03T04:40:49;98475.06;;;8.36;91.34
49611;BME280;35515;48.766;9.176;2022-11-03T04:43:19;98480.94;;;8.62;89.93
49611;BME280;35515;48.766;9.176;2022-11-03T04:45:48;98471.78;;;8.56;89.93
49611;BME280;35515;48.766;9.176;2022-11-03T04:48:18;98473.84;;;8.39;90.63
49611;BME280;35515;48.766;9.176;2022-11-03T04:50:45;98466.75;;;8.38;90.81
49611;BME280;35515;48.766;9.176;2022-11-03T04:53:14;98468.63;;;8.37;91.06
49611;BME280;35515;48.766;9.176;2022-11-03T04:55:42;98460.94;;;8.34;91.42
49611;BME280;35515;48.766;9.176;2022-11-03T04:58:13;98458.72;;;8.45;90.90
49611;BME280;35515;48.766;9.176;2022-11-03T05:00:42;98461.00;;;8.41;90.96
49611;BME280;35515;48.766;9.176;2022-11-03T05:03:13;98462.44;;;8.59;90.17
49611;BME280;35515;48.766;9.176;2022-11-03T05:05:41;98454.09;;;8.53;89.50
49611;BME280;35515;48.766;9.176;2022-11-03T05:08:08;98459.72;;;8.37;90.21
49611;BME280;35515;48.766;9.176;2022-11-03T05:10:35;98450.50;;;8.31;90.77
49611;BME280;35515;48.766;9.176;2022-11-03T05:13:01;98442.03;;;8.34;90.38
49611;BME280;35515;48.766;9.176;2022-11-03T05:15:31;98439.50;;;8.33;90.66
49611;BME280;35515;48.766;9.176;2022-11-03T05:18:01;98434.09;;;8.33;90.47
49611;BME280;35515;48.766;9.176;2022-11-03T05:20:34;98435.66;;;8.20;90.32
49611;BME280;35515;48.766;9.176;2022-11-03T05:23:02;98425.88;;;8.19;90.71
49611;BME280;35515;48.766;9.176;2022-11-03T05:25:38;98421.63;;;8.10;90.96
49611;BME280;35515;48.766;9.176;2022-11-03T05:28:19;98417.28;;;8.09;90.83
49611;BME280;35515;48.766;9.176;2022-11-03T05:30:47;98421.75;;;8.02;91.48
49611;BME280;35515;48.766;9.176;2022-11-03T05:33:20;98409.63;;;8.13;90.82
49611;BME280;35515;48.766;9.176;2022-11-03T05:35:51;98408.78;;;8.12;90.57
49611;BME280;35515;48.766;9.176;2022-11-03T05:38:20;98410.19;;;8.08;90.51
49611;BME280;35515;48.766;9.176;2022-11-03T05:40:50;98408.91;;;8.04;90.86
49611;BME280;35515;48.766;9.176;2022-11-03T05:43:17;98410.19;;;8.08;90.63
49611;BME280;35515;48.766;9.176;2022-11-03T05:45:44;98399.16;;;8.03;90.80
49611;BME280;35515;48.766;9.176;2022-11-03T05:48:14;98396.78;;;8.15;90.43
49611;BME280;35515;48.766;9.176;2022-11-03T05:50:42;98389.19;;;8.03;91.04
49611;BME280;35515;48.766;9.176;2022-11-03T05:53:21;98381.66;;;7.99;91.27
49611;BME280;35515;48.766;9.176;2022-11-03T05:55:50;98387.47;;;7.96;91.36
49611;BME280;35515;48.766;9.176;2022-11-03T05:58:21;98383.63;;;8.27;88.95
49611;BME280;35515;48.766;9.176;2022-11-03T06:00:53;98383.22;;;8.30;88.91
49611;BME280;35515;48.766;9.176;2022-11-03T06:03:23;98391.97;;;8.32;88.23
49611;BME280;35515;48.766;9.176;2022-11-03T06:05:51;98384.19;;;8.44;87.62
49611;BME280;35515;48.766;9.176;2022-11-03T06:08:21;98386.84;;;8.37;88.24
49611;BME280;35515;48.766;9.176;2022-11-03T06:10:51;98382.97;;;8.25;88.09
49611;BME280;35515;48.766;9.176;2022-11-03T06:13:20;98381.22;;;8.17;89.30
49611;BME280;35515;48.766;9.176;2022-11-03T06:15:51;98375.06;;;8.01;90.00
49611;BME280;35515;48.766;9.176;2022-11-03T06:18:21;98364.72;;;8.05;89.43
49611;BME280;35515;48.766;9.176;2022-11-03T06:20:50;98361.09;;;8.19;88.91
49611;BME280;35515;48.766;9.176;2022-11-03T06:23:19;98359.97;;;8.07;89.45
49611;BME280;35515;48.766;9.176;2022-11-03T06:25:47;98343.97;;;8.06;90.09
49611;BME280;35515;48.766;9.176;2022-11-03T06:28:17;98355.59;;;8.06;90.22
49611;BME280;35515;48.766;9.176;2022-11-03T06:30:46;98346.88;;;8.04;90.16
49611;BME280;35515;48.766;9.176;2022-11-03T06:33:15;98342.22;;;7.98;90.80
49611;BME280;35515;48.766;9.176;2022-11-03T06:35:46;98347.88;;;8.03;90.27
49611;BME280;35515;48.766;9.176;2022-11-03T06:38:15;98336.38;;;7.94;90.92
49611;BME280;35515;48.766;9.176;2022-11-03T06:40:45;98346.47;;;7.85;91.77
49611;BME280;35515;48.766;9.176;2022-11-03T06:43:19;98352.13;;;7.91;91.68
49611;BME280;35515;48.766;9.176;2022-11-03T06:45:48;98358.09;;;8.08;91.27
49611;BME280;35515;48.766;9.176;2022-11-03T06:48:23;98358.03;;;8.23;89.67
49611;BME280;35515;48.766;9.176;2022-11-03T06:50:51;98356.03;;;8.10;90.52
49611;BME280;35515;48.766;9.176;2022-11-03T06:53:20;98343.91;;;7.99;91.13
49611;BME280;35515;48.766;9.176;2022-11-03T06:55:48;98349.31;;;7.99;91.33
49611;BME280;35515;48.766;9.176;2022-11-03T06:58:22;98353.47;;;8.01;90.04
49611;BME280;35515;48.766;9.176;2022-11-03T07:00:52;98338.13;;;8.02;89.76
49611;BME280;35515;48.766;9.176;2022-11-03T07:03:23;98347.09;;;7.87;90.67
49611;BME280;35515;48.766;9.176;2022-11-03T07:05:55;98339.25;;;7.93;90.41
49611;BME280;35515;48.766;9.176;2022-11-03T07:08:25;98332.13;;;7.85;90.61
49611;BME280;35515;48.766;9.176;2022-11-03T07:11:00;98331.97;;;8.08;89.85
49611;BME280;35515;48.766;9.176;2022-11-03T07:13:27;98335.56;;;7.94;89.98
49611;BME280;35515;48.766;9.176;2022-11-03T07:15:55;98332.78;;;8.09;89.40
49611;BME280;35515;48.766;9.176;2022-11-03T07:18:24;98328.41;;;7.86;90.79
49611;BME280;35515;48.766;9.176;2022-11-03T07:20:53;98307.41;;;8.03;90.52
49611;BME280;35515;48.766;9.176;2022-11-03T07:23:25;98307.47;;;8.10;90.21
49611;BME280;35515;48.766;9.176;2022-11-03T07:25:53;98302.91;;;8.10;90.58
49611;BME280;35515;48.766;9.176;2022-11-03T07:28:27;98310.34;;;8.30;89.71
49611;BME280;35515;48.766;9.176;2022-11-03T07:30:55;98310.09;;;8.25;90.14
49611;BME280;35515;48.766;9.176;2022-11-03T07:33:23;98318.13;;;8.18;90.66
49611;BME280;35515;48.766;9.176;2022-11-03T07:35:52;98316.50;;;8.24;90.70
49611;BME280;35515;48.766;9.176;2022-11-03T07:38:20;98307.69;;;8.36;90.12
49611;BME280;35515;48.766;9.176;2022-11-03T07:40:48;98309.91;;;8.48;90.35
49611;BME280;35515;48.766;9.176;2022-11-03T07:43:17;98304.94;;;8.51;90.40
49611;BME280;35515;48.766;9.176;2022-11-03T07:45:50;98304.09;;;8.51;90.21
49611;BME280;35515;48.766;9.176;2022-11-03T07:48:19;98304.41;;;8.63;90.09
49611;BME280;35515;48.766;9.176;2022-11-03T07:50:46;98298.06;;;8.77;89.17
49611;BME280;35515;48.766;9.176;2022-11-03T07:53:17;98288.44;;;8.68;89.65
49611;BME280;35515;48.766;9.176;2022-11-03T07:55:44;98284.88;;;8.67;90.54
49611;BME280;35515;48.766;9.176;2022-11-03T07:58:23;98280.34;;;8.68;90.70
49611;BME280;35515;48.766;9.176;2022-11-03T08:00:54;98291.38;;;8.73;90.56
49611;BME280;35515;48.766;9.176;2022-11-03T08:03:43;98277.31;;;8.84;90.06
49611;BME280;35515;48.766;9.176;2022-11-03T08:06:11;98276.03;;;8.80;90.48
49611;BME280;35515;48.766;9.176;2022-11-03T08:08:38;98274.00;;;8.82;90.52
49611;BME280;35515;48.766;9.176;2022-11-03T08:11:05;98267.31;;;8.85;91.11
49611;BME280;35515;48.766;9.176;2022-11-03T08:13:32;98260.31;;;8.91;91.11
49611;BME280;35515;48.766;9.176;2022-11-03T08:16:01;98254.25;;;8.89;91.19
49611;BME280;35515;48.766;9.176;2022-11-03T08:18:28;98250.75;;;8.95;90.79
49611;BME280;35515;48.766;9.176;2022-11-03T08:20:55;98244.09;;;8.91;91.65
49611;BME280;35515;48.766;9.176;2022-11-03T08:23:21;98227.91;;;8.97;91.18
49611;BME280;35515;48.766;9.176;2022-11-03T08:25:48;98221.28;;;9.00;91.58
49611;BME280;35515;48.766;9.176;2022-11-03T08:28:14;98217.97;;;9.11;90.78
49611;BME280;35515;48.766;9.176;2022-11-03T08:30:41;98213.84;;;9.15;90.31
49611;BME280;35515;48.766;9.176;2022-11-03T08:33:09;98211.78;;;9.24;89.81
49611;BME280;35515;48.766;9.176;2022-11-03T08:35:36;98220.72;;;9.25;90.24
49611;BME280;35515;48.766;9.176;2022-11-03T08:38:02;98214.28;;;9.26;90.22
49611;BME280;35515;48.766;9.176;2022-11-03T08:40:29;98206.81;;;9.28;90.70
49611;BME280;35515;48.766;9.176;2022-11-03T08:42:55;98201.44;;;9.34;90.33
49611;BME280;35515;48.766;9.176;2022-11-03T08:45:22;98199.34;;;9.43;89.39
49611;BME280;35515;48.766;9.176;2022-11-03T08:47:49;98199.16;;;9.51;89.17
49611;BME280;35515;48.766;9.176;2022-11-03T08:50:16;98194.59;;;9.59;88.88
49611;BME280;35515;48.766;9.176;2022-11-03T08:52:43;98193.97;;;9.63;88.33
49611;BME280;35515;48.766;9.176;2022-11-03T08:55:09;98187.09;;;9.74;88.20
49611;BME280;35515;48.766;9.176;2022-11-03T08:57:36;98181.31;;;9.70;88.30
49611;BME280;35515;48.766;9.176;2022-11-03T09:00:03;98181.91;;;9.79;89.03
49611;BME280;35515;48.766;9.176;2022-11-03T09:02:30;98187.75;;;9.83;88.75
49611;BME280;35515;48.766;9.176;2022-11-03T09:04:57;98177.34;;;9.86;88.34
49611;BME280;35515;48.766;9.176;2022-11-03T09:07:25;98181.50;;;10.09;87.22
49611;BME280;35515;48.766;9.176;2022-11-03T09:09:51;98175.22;;;10.15;86.40
49611;BME280;35515;48.766;9.176;2022-11-03T09:12:18;98177.09;;;10.21;86.28
49611;BME280;35515;48.766;9.176;2022-11-03T09:14:44;98179.38;;;10.31;86.09
49611;BME280;35515;48.766;9.176;2022-11-03T09:17:11;98171.03;;;10.26;86.86
49611;BME280;35515;48.766;9.176;2022-11-03T09:19:38;98166.25;;;10.28;86.71
49611;BME280;35515;48.766;9.176;2022-11-03T09:22:04;98166.47;;;10.33;86.83
49611;BME280;35515;48.766;9.176;2022-11-03T09:24:32;98161.06;;;10.40;86.47
49611;BME280;35515;48.766;9.176;2022-11-03T09:26:59;98165.44;;;10.41;85.93
49611;BME280;35515;48.766;9.176;2022-11-03T09:29:25;98161.03;;;10.47;85.34
49611;BME280;35515;48.766;9.176;2022-11-03T09:31:52;98153.69;;;10.61;84.86
49611;BME280;35515;48.766;9.176;2022-11-03T09:34:18;98148.84;;;10.76;83.01
49611;BME280;35515;48.766;9.176;2022-11-03T09:36:45;98149.06;;;10.75;83.12
49611;BME280;35515;48.766;9.176;2022-11-03T09:39:12;98145.13;;;10.70;82.85
49611;BME280;35515;48.766;9.176;2022-11-03T09:41:40;98150.13;;;10.74;82.60
49611;BME280;35515;48.766;9.176;2022-11-03T09:44:07;98148.03;;;10.76;82.70
49611;BME280;35515;48.766;9.176;2022-11-03T09:46:34;98134.59;;;10.87;81.82
49611;BME280;35515;48.766;9.176;2022-11-03T09:49:02;98125.88;;;10.85;81.65
49611;BME280;35515;48.766;9.176;2022-11-03T09:51:31;98130.44;;;10.92;81.84
49611;BME280;35515;48.766;9.176;2022-11-03T09:54:02;98122.50;;;10.90;81.80
49611;BME280;35515;48.766;9.176;2022-11-03T09:56:30;98130.00;;;10.95;82.31
49611;BME280;35515;48.766;9.176;2022-11-03T09:58:59;98123.09;;;10.99;82.49
49611;BME280;35515;48.766;9.176;2022-11-03T10:01:26;98114.72;;;11.07;81.31
49611;BME280;35515;48.766;9.176;2022-11-03T10:03:56;98108.84;;;11.10;81.08
49611;BME280;35515;48.766;9.176;2022-11-03T10:06:24;98110.69;;;11.16;81.33
49611;BME280;35515;48.766;9.176;2022-11-03T10:08:51;98105.44;;;11.21;80.90
49611;BME280;35515;48.766;9.176;2022-11-03T10:11:18;98101.47;;;11.24;81.08
49611;BME280;35515;48.766;9.176;2022-11-03T10:13:46;98091.84;;;11.28;81.19
49611;BME280;35515;48.766;9.176;2022-11-03T10:16:20;98100.16;;;11.33;80.35
49611;BME280;35515;48.766;9.176;2022-11-03T10:18:48;98101.41;;;11.31;82.14
49611;BME280;35515;48.766;9.176;2022-11-03T10:21:17;98093.06;;;11.32;82.28
49611;BME280;35515;48.766;9.176;2022-11-03T10:23:44;98098.09;;;11.29;82.43
49611;BME280;35515;48.766;9.176;2022-11-03T10:26:12;98088.84;;;11.36;82.41
49611;BME280;35515;48.766;9.176;2022-11-03T10:28:56;98087.75;;;11.44;82.04
49611;BME280;35515;48.766;9.176;2022-11-03T10:31:31;98078.13;;;11.48;81.83
49611;BME280;35515;48.766;9.176;2022-11-03T10:33:58;98075.34;;;11.55;81.62
49611;BME280;35515;48.766;9.176;2022-11-03T10:36:26;98073.31;;;11.50;81.75
49611;BME280;35515;48.766;9.176;2022-11-03T10:38:53;98075.81;;;11.52;81.92
49611;BME280;35515;48.766;9.176;2022-11-03T10:41:21;98072.88;;;11.53;82.62
49611;BME280;35515;48.766;9.176;2022-11-03T10:44:02;98062.00;;;11.53;81.60
49611;BME280;35515;48.766;9.176;2022-11-03T10:46:31;98053.25;;;11.51;82.25
49611;BME280;35515;48.766;9.176;2022-11-03T10:49:01;98051.63;;;11.50;82.31
49611;BME280;35515;48.766;9.176;2022-11-03T10:51:28;98037.59;;;11.53;82.26
49611;BME280;35515;48.766;9.176;2022-11-03T10:53:55;98044.69;;;11.54;81.99
49611;BME280;35515;48.766;9.176;2022-11-03T10:56:22;98046.94;;;11.58;81.44
49611;BME280;35515;48.766;9.176;2022-11-03T10:58:48;98041.53;;;11.58;82.05
49611;BME280;35515;48.766;9.176;2022-11-03T11:01:15;98031.44;;;11.65;81.35
49611;BME280;35515;48.766;9.176;2022-11-03T11:03:43;98039.31;;;11.73;80.39
49611;BME280;35515;48.766;9.176;2022-11-03T11:06:21;98028.22;;;11.75;80.48
49611;BME280;35515;48.766;9.176;2022-11-03T11:08:50;98028.75;;;11.83;80.25
49611;BME280;35515;48.766;9.176;2022-11-03T11:11:20;98011.41;;;11.84;78.94
49611;BME280;35515;48.766;9.176;2022-11-03T11:14:20;98005.31;;;11.89;78.22
49611;BME280;35515;48.766;9.176;2022-11-03T11:16:49;97995.28;;;11.90;79.03
49611;BME280;35515;48.766;9.176;2022-11-03T11:19:17;97984.66;;;11.88;78.47
49611;BME280;35515;48.766;9.176;2022-11-03T11:22:20;97986.31;;;11.89;79.16
49611;BME280;35515;48.766;9.176;2022-11-03T11:25:11;97987.31;;;11.95;79.30
49611;BME280;35515;48.766;9.176;2022-11-03T11:27:56;97975.63;;;11.94;78.54
49611;BME280;35515;48.766;9.176;2022-11-03T11:33:32;97970.25;;;12.06;78.46
49611;BME280;35515;48.766;9.176;2022-11-03T11:38:57;97957.44;;;12.13;77.91
49611;BME280;35515;48.766;9.176;2022-11-03T11:44:51;97951.16;;;12.13;78.13
49611;BME280;35515;48.766;9.176;2022-11-03T11:47:21;97951.56;;;12.16;78.08
49611;BME280;35515;48.766;9.176;2022-11-03T11:50:00;97942.72;;;12.21;77.81
49611;BME280;35515;48.766;9.176;2022-11-03T11:52:29;97933.75;;;12.20;78.22
49611;BME280;35515;48.766;9.176;2022-11-03T11:54:57;97930.44;;;12.18;78.45
49611;BME280;35515;48.766;9.176;2022-11-03T11:57:23;97936.00;;;12.24;78.81
49611;BME280;35515;48.766;9.176;2022-11-03T11:59:50;97922.66;;;12.22;79.16
49611;BME280;35515;48.766;9.176;2022-11-03T12:02:18;97925.75;;;12.26;79.06
49611;BME280;35515;48.766;9.176;2022-11-03T12:04:49;97924.31;;;12.23;78.18
49611;BME280;35515;48.766;9.176;2022-11-03T12:07:30;97919.84;;;12.29;78.02
49611;BME280;35515;48.766;9.176;2022-11-03T12:10:07;97909.72;;;12.36;76.82
49611;BME280;35515;48.766;9.176;2022-11-03T12:12:33;97904.66;;;12.40;76.58
49611;BME280;35515;48.766;9.176;2022-11-03T12:15:00;97889.31;;;12.45;75.75
49611;BME280;35515;48.766;9.176;2022-11-03T12:17:30;97887.66;;;12.44;76.34
49611;BME280;35515;48.766;9.176;2022-11-03T12:19:58;97881.75;;;12.47;76.14
49611;BME280;35515;48.766;9.176;2022-11-03T12:22:40;97874.78;;;12.51;76.43
49611;BME280;35515;48.766;9.176;2022-11-03T12:25:32;97861.69;;;12.48;76.52
49611;BME280;35515;48.766;9.176;2022-11-03T12:28:00;97867.09;;;12.48;76.88
49611;BME280;35515;48.766;9.176;2022-11-03T12:30:27;97874.22;;;12.49;76.59
49611;BME280;35515;48.766;9.176;2022-11-03T12:32:55;97862.16;;;12.45;76.71
49611;BME280;35515;48.766;9.176;2022-11-03T12:35:22;97857.16;;;12.42;77.11
49611;BME280;35515;48.766;9.176;2022-11-03T12:37:48;97854.56;;;12.47;76.50
49611;BME280;35515;48.766;9.176;2022-11-03T12:40:15;97847.84;;;12.50;76.86
49611;BME280;35515;48.766;9.176;2022-11-03T12:42:43;97844.09;;;12.51;77.08
49611;BME280;35515;48.766;9.176;2022-11-03T12:45:10;97829.56;;;12.45;77.91
49611;BME280;35515;48.766;9.176;2022-11-03T12:47:37;97825.78;;;12.46;77.88
49611;BME280;35515;48.766;9.176;2022-11-03T12:50:04;97820.47;;;12.40;78.23
49611;BME280;35515;48.766;9.176;2022-11-03T12:52:31;97812.66;;;12.43;77.82
49611;BME280;35515;48.766;9.176;2022-11-03T12:54:58;97812.66;;;12.55;77.40
49611;BME280;35515;48.766;9.176;2022-11-03T12:57:24;97804.75;;;12.53;77.74
49611;BME280;35515;48.766;9.176;2022-11-03T12:59:52;97796.13;;;12.57;77.96
49611;BME280;35515;48.766;9.176;2022-11-03T13:02:19;97793.41;;;12.57;78.09
49611;BME280;35515;48.766;9.176;2022-11-03T13:04:45;97790.13;;;12.54;78.58
49611;BME280;35515;48.766;9.176;2022-11-03T13:07:12;97781.97;;;12.54;77.92
49611;BME280;35515;48.766;9.176;2022-11-03T13:09:38;97779.25;;;12.54;78.54
49611;BME280;35515;48.766;9.176;2022-11-03T13:12:05;97762.94;;;12.54;79.52
49611;BME280;35515;48.766;9.176;2022-11-03T13:14:49;97760.78;;;12.57;79.23
49611;BME280;35515;48.766;9.176;2022-11-03T13:17:17;97754.19;;;12.52;79.04
49611;BME280;35515;48.766;9.176;2022-11-03T13:19:43;97748.75;;;12.52;79.36
49611;BME280;35515;48.766;9.176;2022-11-03T13:22:10;97729.16;;;12.50;78.98
49611;BME280;35515;48.766;9.176;2022-11-03T13:24:37;97725.97;;;12.53;78.56
49611;BME280;35515;48.766;9.176;2022-11-03T13:27:03;97719.47;;;12.54;77.79
49611;BME280;35515;48.766;9.176;2022-11-03T13:29:30;97716.50;;;12.56;78.33
49611;BME280;35515;48.766;9.176;2022-11-03T13:31:56;97716.75;;;12.54;78.82